Time;durP1;ratioP1;P1;durP2;ratioP2;P2;SDS_P1;SDS_P2;PMS_P1;PMS_P2;Temp;Humidity;BMP_temperature;BMP_pressure;BME280_temperature;BME280_humidity;BME280_pressure;Samples;Min_cycle;Max_cycle;Signal;HPM_P1;HPM_P2
2021/01/13 00:01:01;;;;;;;18.50;3.05;;;1.20;99.90;;;;;;5116699;27;20107;-65
2021/01/13 00:03:26;;;;;;;16.52;2.53;;;1.20;99.90;;;;;;5102271;28;20177;-65
2021/01/13 00:05:52;;;;;;;16.88;2.90;;;1.30;99.90;;;;;;5100819;28;20039;-66
2021/01/13 00:08:17;;;;;;;14.80;2.90;;;1.20;99.90;;;;;;5100355;28;20074;-65
2021/01/13 00:10:43;;;;;;;21.02;3.95;;;1.20;99.90;;;;;;5106828;28;20047;-65
2021/01/13 00:13:08;;;;;;;15.23;2.40;;;1.20;99.90;;;;;;5118665;28;20509;-65
2021/01/13 00:15:34;;;;;;;11.15;2.58;;;1.20;99.90;;;;;;5116190;27;20050;-65
2021/01/13 00:17:59;;;;;;;14.50;2.40;;;1.20;99.90;;;;;;5118583;27;20446;-65
2021/01/13 00:20:25;;;;;;;10.77;2.33;;;1.30;99.90;;;;;;5107143;28;20411;-64
2021/01/13 00:22:50;;;;;;;7.80;2.00;;;1.40;99.90;;;;;;5108855;28;20052;-65
2021/01/13 00:25:16;;;;;;;16.50;2.20;;;1.40;99.90;;;;;;5107450;28;20039;-65
2021/01/13 00:27:42;;;;;;;16.50;2.22;;;1.30;99.90;;;;;;5108233;27;20063;-65
2021/01/13 00:30:08;;;;;;;14.65;2.75;;;1.30;99.90;;;;;;5106806;28;20406;-65
2021/01/13 00:32:34;;;;;;;18.27;2.63;;;1.30;99.90;;;;;;5106576;28;20043;-65
2021/01/13 00:35:00;;;;;;;13.90;2.00;;;1.40;99.90;;;;;;5089630;28;20121;-65
2021/01/13 00:37:26;;;;;;;14.65;2.30;;;1.40;99.90;;;;;;5091983;28;20437;-65
2021/01/13 00:39:51;;;;;;;9.13;2.03;;;1.40;99.90;;;;;;5107744;28;20035;-65
2021/01/13 00:42:17;;;;;;;16.58;2.58;;;1.40;99.90;;;;;;5107534;28;20035;-65
2021/01/13 00:44:43;;;;;;;21.92;2.72;;;1.30;99.90;;;;;;5111913;27;20699;-66
2021/01/13 00:47:08;;;;;;;12.10;2.25;;;1.30;99.90;;;;;;5123403;27;20035;-64
2021/01/13 00:49:34;;;;;;;15.35;2.08;;;1.30;99.90;;;;;;5128033;27;20035;-65
2021/01/13 00:51:59;;;;;;;21.35;2.38;;;1.30;99.90;;;;;;5128242;27;20103;-65
2021/01/13 00:54:24;;;;;;;15.23;3.15;;;1.20;99.90;;;;;;5111374;27;20488;-65
2021/01/13 00:56:50;;;;;;;18.92;2.95;;;1.20;99.90;;;;;;5107862;28;20040;-65
2021/01/13 00:59:16;;;;;;;17.65;2.55;;;1.20;99.90;;;;;;5106644;28;20043;-65
2021/01/13 01:01:43;;;;;;;22.92;3.58;;;1.20;99.90;;;;;;5106777;28;20482;-65
2021/01/13 01:04:10;;;;;;;33.38;4.10;;;1.20;99.90;;;;;;5094874;28;20044;-65
2021/01/13 01:06:36;;;;;;;17.58;2.50;;;1.20;99.90;;;;;;5086659;28;20040;-65
2021/01/13 01:09:04;;;;;;;20.67;4.95;;;1.20;99.90;;;;;;5089516;28;20643;-65
2021/01/13 01:11:36;;;;;;;8.85;2.22;;;1.20;99.90;;;;;;5107315;28;20143;-65
2021/01/13 01:14:03;;;;;;;20.98;2.55;;;1.30;99.90;;;;;;5108645;27;20099;-65
2021/01/13 01:16:37;;;;;;;16.38;2.30;;;1.20;99.90;;;;;;5118523;27;20043;-65
2021/01/13 01:19:06;;;;;;;20.48;2.80;;;1.20;99.90;;;;;;5121296;27;20055;-65
2021/01/13 01:21:32;;;;;;;12.90;2.55;;;1.20;99.90;;;;;;5086561;28;20043;-65
2021/01/13 01:23:57;;;;;;;19.90;3.22;;;1.10;99.90;;;;;;5086454;28;20101;-65
2021/01/13 01:26:23;;;;;;;16.63;2.17;;;1.20;99.90;;;;;;5092548;28;20040;-65
2021/01/13 01:28:49;;;;;;;24.75;2.80;;;1.10;99.90;;;;;;5104830;28;20035;-65
2021/01/13 01:31:15;;;;;;;8.40;2.47;;;1.20;99.90;;;;;;5085714;28;20028;-65
2021/01/13 01:33:40;;;;;;;11.52;2.15;;;1.10;99.90;;;;;;5087255;28;20082;-65
2021/01/13 01:36:07;;;;;;;14.45;2.78;;;1.10;99.90;;;;;;5102294;28;20071;-65
2021/01/13 01:38:32;;;;;;;18.23;3.85;;;1.20;99.90;;;;;;5105769;28;20051;-65
2021/01/13 01:41:05;;;;;;;22.55;4.10;;;1.20;99.90;;;;;;5106313;28;20036;-65
2021/01/13 01:43:30;;;;;;;16.45;2.92;;;1.20;99.90;;;;;;5104142;27;20063;-65
2021/01/13 01:45:56;;;;;;;14.75;3.03;;;1.20;99.90;;;;;;5117505;27;20160;-65
2021/01/13 01:48:48;;;;;;;11.23;2.10;;;1.10;99.90;;;;;;5125248;27;20066;-65
2021/01/13 01:51:38;;;;;;;20.80;3.47;;;1.20;99.90;;;;;;5105619;28;20039;-65
2021/01/13 01:54:17;;;;;;;15.23;2.88;;;1.20;99.90;;;;;;5105270;28;20826;-65
2021/01/13 01:56:45;;;;;;;19.98;2.72;;;1.30;99.90;;;;;;5105457;28;20495;-65
2021/01/13 01:59:15;;;;;;;10.30;1.80;;;1.20;99.90;;;;;;5101759;28;20035;-65
2021/01/13 02:01:42;;;;;;;12.10;2.25;;;1.20;99.90;;;;;;5084515;28;20062;-65
2021/01/13 02:04:29;;;;;;;15.80;2.83;;;1.20;99.90;;;;;;5100008;28;20051;-65
2021/01/13 02:06:58;;;;;;;13.20;2.55;;;1.20;99.90;;;;;;5093481;27;20048;-65
2021/01/13 02:09:33;;;;;;;19.27;3.13;;;1.10;99.90;;;;;;5088897;28;20108;-65
2021/01/13 02:12:00;;;;;;;14.43;2.67;;;1.20;99.90;;;;;;5105683;28;20036;-64
2021/01/13 02:14:26;;;;;;;16.88;2.30;;;1.10;99.90;;;;;;5111046;27;20541;-65
2021/01/13 02:16:54;;;;;;;12.73;2.80;;;1.10;99.90;;;;;;5118274;27;20492;-65
2021/01/13 02:19:44;;;;;;;11.00;2.60;;;1.10;99.90;;;;;;5124262;27;20039;-65
2021/01/13 02:22:12;;;;;;;15.40;2.30;;;1.10;99.90;;;;;;5106972;28;20044;-65
2021/01/13 02:25:25;;;;;;;14.85;2.17;;;1.20;99.90;;;;;;5105802;28;20157;-65
2021/01/13 02:28:03;;;;;;;19.27;2.78;;;1.20;99.90;;;;;;5026469;28;20057;-65
2021/01/13 02:30:37;;;;;;;11.90;2.53;;;1.10;99.90;;;;;;5101741;28;20043;-65
2021/01/13 02:33:12;;;;;;;21.15;3.13;;;1.10;99.90;;;;;;5106389;28;20047;-65
2021/01/13 02:36:16;;;;;;;12.57;2.83;;;1.20;99.90;;;;;;5106247;28;20039;-65
2021/01/13 02:38:44;;;;;;;18.20;2.60;;;1.20;99.90;;;;;;5089725;28;20048;-65
2021/01/13 02:41:18;;;;;;;15.10;2.78;;;1.20;99.90;;;;;;5099467;28;20081;-65
2021/01/13 02:43:56;;;;;;;19.17;3.28;;;1.10;99.90;;;;;;5105651;27;20043;-65
2021/01/13 02:46:54;;;;;;;16.95;2.58;;;1.10;99.90;;;;;;5116697;27;20067;-65
2021/01/13 02:49:32;;;;;;;19.00;3.80;;;1.00;99.90;;;;;;5112101;27;20039;-65
2021/01/13 02:52:00;;;;;;;13.88;2.78;;;1.10;99.90;;;;;;5085281;28;20107;-65
2021/01/13 02:54:40;;;;;;;14.70;2.20;;;1.10;99.90;;;;;;5084346;28;20058;-65
2021/01/13 02:57:17;;;;;;;9.85;2.22;;;1.10;99.90;;;;;;5084731;28;20121;-65
2021/01/13 02:59:45;;;;;;;15.98;3.08;;;1.10;99.90;;;;;;5083944;28;20048;-65
2021/01/13 03:02:11;;;;;;;16.15;3.13;;;1.10;99.90;;;;;;5085240;28;20042;-65
2021/01/13 03:04:41;;;;;;;15.50;2.70;;;1.00;99.90;;;;;;5084459;28;20056;-65
2021/01/13 03:07:26;;;;;;;23.17;3.40;;;1.00;99.90;;;;;;5102097;28;20517;-65
2021/01/13 03:09:57;;;;;;;18.35;2.50;;;1.00;99.90;;;;;;5104714;28;20453;-65
2021/01/13 03:12:25;;;;;;;22.40;2.55;;;1.00;99.90;;;;;;5099502;28;20043;-65
2021/01/13 03:14:56;;;;;;;18.23;2.85;;;0.90;99.90;;;;;;5109643;28;20580;-65
2021/01/13 03:17:34;;;;;;;13.35;2.60;;;0.90;99.90;;;;;;5121398;28;20411;-65
2021/01/13 03:20:18;;;;;;;18.13;2.97;;;0.90;99.90;;;;;;5125169;28;20046;-65
2021/01/13 03:23:38;;;;;;;27.25;4.38;;;0.90;99.90;;;;;;5124386;28;20131;-65
2021/01/13 03:26:06;;;;;;;12.20;2.53;;;0.90;99.90;;;;;;5077342;27;20047;-65
2021/01/13 03:28:34;;;;;;;10.60;2.35;;;0.90;99.90;;;;;;5102898;28;20080;-65
2021/01/13 03:31:00;;;;;;;17.17;3.03;;;0.90;99.90;;;;;;5103194;28;20070;-64
2021/01/13 03:33:44;;;;;;;13.73;2.83;;;1.00;99.90;;;;;;5104727;28;20120;-65
2021/01/13 03:36:18;;;;;;;20.58;2.70;;;0.90;99.90;;;;;;5103660;28;20130;-65
2021/01/13 03:39:07;;;;;;;15.48;2.80;;;1.00;99.90;;;;;;5088762;28;20123;-64
2021/01/13 03:41:55;;;;;;;18.38;2.80;;;1.00;99.90;;;;;;5084673;28;20047;-65
2021/01/13 03:44:26;;;;;;;19.63;3.17;;;0.90;99.90;;;;;;5100849;28;20138;-65
2021/01/13 03:46:54;;;;;;;12.38;3.00;;;0.90;99.90;;;;;;5116657;28;20488;-65
2021/01/13 03:49:25;;;;;;;21.33;3.47;;;0.90;99.90;;;;;;5125257;27;20038;-65
2021/01/13 03:52:03;;;;;;;14.43;3.67;;;0.80;99.90;;;;;;5112739;27;20708;-65
2021/01/13 03:54:34;;;;;;;30.23;4.05;;;0.80;99.90;;;;;;5109054;28;20217;-65
2021/01/13 03:57:05;;;;;;;21.58;3.42;;;0.80;99.90;;;;;;5092083;28;20578;-65
2021/01/13 04:00:06;;;;;;;15.43;3.10;;;0.80;99.90;;;;;;5087494;28;20035;-64
2021/01/13 04:02:54;;;;;;;31.50;3.22;;;0.80;99.90;;;;;;5077071;28;20048;-64
2021/01/13 04:05:23;;;;;;;17.42;3.10;;;0.80;99.90;;;;;;5089485;28;20072;-65
2021/01/13 04:07:50;;;;;;;15.35;3.38;;;0.90;99.90;;;;;;5108006;28;20521;-65
2021/01/13 04:10:17;;;;;;;16.77;3.28;;;0.90;99.90;;;;;;5108737;28;20880;-64
2021/01/13 04:12:55;;;;;;;11.85;3.28;;;0.90;99.90;;;;;;5105608;28;20039;-65
2021/01/13 04:15:30;;;;;;;15.43;4.22;;;0.90;99.90;;;;;;5113047;27;20575;-65
2021/01/13 04:17:56;;;;;;;13.50;3.35;;;0.90;99.90;;;;;;5129056;27;20043;-65
2021/01/13 04:20:22;;;;;;;12.80;3.90;;;1.00;99.90;;;;;;5128552;27;20045;-64
2021/01/13 04:22:48;;;;;;;18.23;3.97;;;1.00;99.90;;;;;;5128495;27;20039;-65
2021/01/13 04:25:14;;;;;;;22.65;4.38;;;1.00;99.90;;;;;;5128339;27;20122;-65
2021/01/13 04:27:41;;;;;;;22.50;3.72;;;0.90;99.90;;;;;;5108339;28;20558;-65
2021/01/13 04:30:07;;;;;;;19.52;4.15;;;1.00;99.90;;;;;;5106028;28;20036;-65
2021/01/13 04:32:33;;;;;;;19.25;4.05;;;1.00;99.90;;;;;;5107670;28;20150;-64
2021/01/13 04:34:59;;;;;;;27.98;4.15;;;1.00;99.90;;;;;;5106429;28;20487;-65
2021/01/13 04:37:31;;;;;;;23.67;3.63;;;1.00;99.90;;;;;;5092889;28;20040;-64
2021/01/13 04:40:02;;;;;;;22.65;3.80;;;0.90;99.90;;;;;;5107033;28;20510;-65
2021/01/13 04:42:48;;;;;;;19.15;4.00;;;0.90;99.90;;;;;;5107472;28;20093;-65
2021/01/13 04:45:33;;;;;;;13.13;4.50;;;0.90;99.90;;;;;;5111300;27;20042;-65
2021/01/13 04:48:05;;;;;;;14.18;3.95;;;0.90;99.90;;;;;;5086696;28;20048;-65
2021/01/13 04:50:36;;;;;;;18.35;4.15;;;0.90;99.90;;;;;;5086287;28;20036;-65
2021/01/13 04:53:09;;;;;;;20.98;4.85;;;0.90;99.90;;;;;;5085897;28;20063;-65
2021/01/13 04:55:44;;;;;;;18.17;3.80;;;1.00;99.90;;;;;;5088212;28;20074;-65
2021/01/13 04:58:44;;;;;;;17.75;3.65;;;1.00;99.90;;;;;;5106100;28;20044;-65
2021/01/13 05:01:47;;;;;;;18.67;4.05;;;0.90;99.90;;;;;;5105974;28;20107;-65
2021/01/13 05:04:43;;;;;;;24.48;4.60;;;1.00;99.90;;;;;;5105610;28;20043;-65
2021/01/13 05:07:34;;;;;;;21.27;4.20;;;0.90;99.90;;;;;;5103988;28;20036;-65
2021/01/13 05:10:01;;;;;;;11.57;3.67;;;1.00;99.90;;;;;;5106013;28;20047;-65
2021/01/13 05:12:40;;;;;;;13.45;3.90;;;1.00;99.90;;;;;;5107657;27;20119;-65
2021/01/13 05:15:06;;;;;;;15.27;4.00;;;1.00;99.90;;;;;;5114935;27;20042;-65
2021/01/13 05:17:34;;;;;;;14.23;4.00;;;1.00;99.90;;;;;;5090426;27;20040;-65
2021/01/13 05:20:05;;;;;;;17.33;4.40;;;1.00;99.90;;;;;;5086055;28;20069;-65
2021/01/13 05:22:35;;;;;;;18.92;5.00;;;1.00;99.90;;;;;;5086210;28;20151;-65
2021/01/13 05:25:06;;;;;;;12.30;3.88;;;0.90;99.90;;;;;;5086012;28;20496;-65
2021/01/13 05:27:44;;;;;;;12.02;4.22;;;0.90;99.90;;;;;;5103199;28;20081;-65
2021/01/13 05:30:10;;;;;;;19.02;3.83;;;1.00;99.90;;;;;;5105077;28;20069;-65
2021/01/13 05:32:41;;;;;;;30.05;4.47;;;0.90;99.90;;;;;;5106191;28;20063;-65
2021/01/13 05:35:08;;;;;;;21.30;4.80;;;1.00;99.90;;;;;;5104218;28;20047;-65
2021/01/13 05:37:49;;;;;;;16.55;3.58;;;0.90;99.90;;;;;;5085710;28;20040;-65
2021/01/13 05:40:16;;;;;;;17.98;3.92;;;0.90;99.90;;;;;;5091955;28;20065;-65
2021/01/13 05:42:43;;;;;;;16.85;3.35;;;0.90;99.90;;;;;;5084317;28;20052;-65
2021/01/13 05:45:09;;;;;;;20.63;5.80;;;0.90;99.90;;;;;;5107822;27;20142;-65
2021/01/13 05:47:55;;;;;;;25.17;7.57;;;1.10;99.90;;;;;;5106373;27;20043;-65
2021/01/13 05:50:23;;;;;;;25.85;4.20;;;1.10;99.90;;;;;;5106166;28;20123;-66
2021/01/13 05:52:51;;;;;;;17.75;5.32;;;1.00;99.90;;;;;;5105386;28;20064;-72
2021/01/13 05:55:19;;;;;;;15.32;4.40;;;1.00;99.90;;;;;;5104089;28;20043;-65
2021/01/13 05:57:59;;;;;;;10.88;3.15;;;1.10;99.90;;;;;;5106276;28;20042;-67
2021/01/13 06:00:29;;;;;;;16.35;3.13;;;1.10;99.90;;;;;;5105039;28;20043;-66
2021/01/13 06:03:03;;;;;;;21.65;3.45;;;1.20;99.90;;;;;;5104754;28;20341;-66
2021/01/13 06:05:33;;;;;;;14.00;3.35;;;1.10;99.90;;;;;;5105981;28;20036;-66
2021/01/13 06:08:01;;;;;;;14.60;3.30;;;1.10;99.90;;;;;;5105674;28;20046;-66
2021/01/13 06:10:34;;;;;;;13.77;3.47;;;1.10;99.90;;;;;;5106109;28;20050;-66
2021/01/13 06:13:05;;;;;;;16.02;3.53;;;1.10;99.90;;;;;;5098554;28;20040;-66
2021/01/13 06:15:32;;;;;;;18.63;3.90;;;1.10;99.90;;;;;;5112834;27;20047;-65
2021/01/13 06:18:00;;;;;;;16.30;5.28;;;1.20;99.90;;;;;;5126820;27;20034;-64
2021/01/13 06:20:27;;;;;;;26.65;6.25;;;1.20;99.90;;;;;;5100549;27;20040;-63
2021/01/13 06:22:55;;;;;;;23.90;6.85;;;1.20;99.90;;;;;;5085456;28;20699;-64
2021/01/13 06:25:28;;;;;;;25.02;4.25;;;1.30;99.90;;;;;;5087015;28;20040;-63
2021/01/13 06:27:57;;;;;;;21.08;4.18;;;1.20;99.90;;;;;;5105004;28;20043;-63
2021/01/13 06:30:27;;;;;;;18.98;3.58;;;1.20;99.90;;;;;;5100025;28;20040;-63
2021/01/13 06:32:59;;;;;;;19.67;4.13;;;1.30;99.90;;;;;;5085162;28;20048;-62
2021/01/13 06:36:04;;;;;;;27.73;9.57;;;1.20;99.90;;;;;;5105047;28;20919;-63
2021/01/13 06:38:58;;;;;;;15.52;5.50;;;1.20;99.90;;;;;;5095332;28;20048;-63
2021/01/13 06:41:26;;;;;;;23.70;4.80;;;1.20;99.90;;;;;;5104913;28;20042;-63
2021/01/13 06:44:18;;;;;;;18.35;4.22;;;1.10;99.90;;;;;;5105865;27;20046;-63
2021/01/13 06:46:44;;;;;;;22.40;6.15;;;1.10;99.90;;;;;;5107856;27;20039;-63
2021/01/13 06:49:21;;;;;;;15.98;4.03;;;1.20;99.90;;;;;;5125539;27;20050;-62
2021/01/13 06:51:48;;;;;;;33.90;12.45;;;1.20;99.90;;;;;;5125243;27;20046;-63
2021/01/13 06:54:17;;;;;;;36.58;17.27;;;1.20;99.90;;;;;;5125271;27;20102;-63
2021/01/13 06:56:56;;;;;;;15.52;4.43;;;1.30;99.90;;;;;;5106407;27;20058;-63
2021/01/13 06:59:23;;;;;;;20.83;4.13;;;1.20;99.90;;;;;;5100643;28;20051;-63
2021/01/13 07:01:52;;;;;;;15.48;3.60;;;1.20;99.90;;;;;;5100987;28;20043;-63
2021/01/13 07:04:18;;;;;;;25.40;6.60;;;1.20;99.90;;;;;;5103900;28;20124;-63
2021/01/13 07:07:00;;;;;;;20.88;5.88;;;1.20;99.90;;;;;;5086223;28;20524;-63
2021/01/13 07:09:53;;;;;;;12.98;5.07;;;1.20;99.90;;;;;;5083399;28;20044;-63
2021/01/13 07:12:27;;;;;;;18.23;3.85;;;1.20;99.90;;;;;;5104113;28;20031;-63
2021/01/13 07:14:55;;;;;;;18.05;5.70;;;1.20;99.90;;;;;;5105738;28;20395;-62
2021/01/13 07:17:23;;;;;;;11.75;3.70;;;1.20;99.90;;;;;;5121872;28;20035;-63
2021/01/13 07:19:50;;;;;;;12.02;3.90;;;1.10;99.90;;;;;;5124896;27;20050;-63
2021/01/13 07:22:18;;;;;;;18.25;3.88;;;1.30;99.90;;;;;;5124779;27;20039;-64
2021/01/13 07:24:45;;;;;;;20.05;10.07;;;1.20;99.90;;;;;;5126373;27;20039;-63
2021/01/13 07:27:12;;;;;;;13.35;6.55;;;1.10;99.90;;;;;;5110923;27;20047;-64
2021/01/13 07:29:38;;;;;;;36.97;18.88;;;1.20;99.90;;;;;;5108132;28;20043;-63
2021/01/13 07:32:05;;;;;;;9.90;3.85;;;1.30;99.90;;;;;;5103904;28;20509;-63
2021/01/13 07:34:43;;;;;;;13.88;4.00;;;1.30;99.90;;;;;;5107025;28;20482;-63
2021/01/13 07:37:23;;;;;;;8.38;2.60;;;1.20;99.90;;;;;;5108391;28;20480;-62
2021/01/13 07:40:15;;;;;;;9.15;2.30;;;1.20;99.90;;;;;;5109075;28;20596;-62
2021/01/13 07:42:44;;;;;;;6.07;2.40;;;1.10;99.90;;;;;;5108247;28;20075;-63
2021/01/13 07:45:20;;;;;;;4.80;2.40;;;1.10;99.90;;;;;;5112878;27;20047;-63
2021/01/13 07:47:48;;;;;;;10.98;2.63;;;1.10;99.90;;;;;;5088357;28;20040;-64
2021/01/13 07:50:15;;;;;;;13.88;3.33;;;1.10;99.90;;;;;;5095840;28;20353;-63
2021/01/13 07:52:46;;;;;;;8.90;2.60;;;1.20;99.90;;;;;;5108210;28;20036;-63
2021/01/13 07:55:20;;;;;;;5.75;2.28;;;1.10;99.90;;;;;;5092938;28;20048;-63
2021/01/13 07:57:56;;;;;;;9.05;2.72;;;1.20;99.90;;;;;;5087629;28;20051;-63
2021/01/13 08:00:36;;;;;;;9.25;2.40;;;1.10;99.90;;;;;;5086278;28;20043;-63
2021/01/13 08:03:40;;;;;;;14.27;3.38;;;1.10;99.90;;;;;;5087203;28;20403;-63
2021/01/13 08:06:17;;;;;;;13.00;4.25;;;1.10;99.90;;;;;;5102146;28;20036;-63
2021/01/13 08:09:08;;;;;;;4.07;2.25;;;1.10;99.90;;;;;;5107477;28;20047;-63
2021/01/13 08:11:55;;;;;;;4.10;2.42;;;1.10;99.90;;;;;;5106800;28;20032;-63
2021/01/13 08:14:21;;;;;;;3.92;2.35;;;1.10;99.90;;;;;;5110402;27;20612;-63
2021/01/13 08:16:58;;;;;;;4.53;2.45;;;1.00;99.90;;;;;;5119738;27;20058;-63
2021/01/13 08:20:02;;;;;;;4.47;2.13;;;0.90;99.90;;;;;;5127326;27;20097;-65
2021/01/13 08:22:29;;;;;;;9.68;2.38;;;0.90;99.90;;;;;;5086228;28;20040;-66
2021/01/13 08:25:01;;;;;;;12.38;3.10;;;0.90;99.90;;;;;;5101136;28;20542;-65
2021/01/13 08:27:28;;;;;;;15.55;2.95;;;1.00;99.90;;;;;;5107575;28;20043;-65
2021/01/13 08:29:56;;;;;;;11.95;3.45;;;1.00;99.90;;;;;;5107161;28;20122;-70
2021/01/13 08:32:30;;;;;;;17.40;3.80;;;1.00;99.90;;;;;;5105561;27;20055;-65
2021/01/13 08:35:04;;;;;;;15.48;3.78;;;1.10;99.90;;;;;;5095457;28;20055;-66
2021/01/13 08:37:34;;;;;;;14.48;2.83;;;1.10;99.90;;;;;;5091381;28;20044;-64
2021/01/13 08:40:26;;;;;;;11.73;2.88;;;1.10;99.90;;;;;;5103684;28;20519;-63
2021/01/13 08:43:15;;;;;;;12.38;3.05;;;1.10;99.90;;;;;;5099538;28;20040;-63
2021/01/13 08:45:45;;;;;;;11.98;3.00;;;;;;;;;;5116247;27;20035;-69
2021/01/13 08:48:12;;;;;;;12.57;3.30;;;;;;;;;;5107193;28;20042;-62
2021/01/13 08:50:39;;;;;;;16.88;3.50;;;;;;;;;;5106466;28;20085;-61
2021/01/13 08:53:05;;;;;;;17.65;3.83;;;;;;;;;;5105980;28;20619;-61
2021/01/13 08:55:32;;;;;;;19.30;3.80;;;;;;;;;;5095812;28;20039;-59
2021/01/13 08:58:05;;;;;;;15.63;4.15;;;;;;;;;;5092541;28;20040;-60
2021/01/13 09:00:31;;;;;;;20.42;4.22;;;;;;;;;;5100932;28;20139;-60
2021/01/13 09:03:01;;;;;;;11.45;3.20;;;;;;;;;;5085762;28;20048;-62
2021/01/13 09:05:28;;;;;;;19.33;3.65;;;;;;;;;;5086385;28;20040;-62
2021/01/13 09:07:54;;;;;;;15.27;4.30;;;;;;;;;;5086660;28;20028;-60
2021/01/13 09:10:21;;;;;;;28.83;3.72;;;;;;;;;;5090724;28;20039;-61
2021/01/13 09:12:47;;;;;;;15.60;3.08;;;;;;;;;;5106844;28;20546;-61
2021/01/13 09:15:15;;;;;;;8.32;4.05;;;;;;;;;;5108131;27;20059;-61
2021/01/13 09:17:42;;;;;;;21.10;3.42;;;;;;;;;;5120595;27;20035;-62
2021/01/13 09:20:10;;;;;;;22.45;5.65;;;;;;;;;;5106581;28;20027;-62
2021/01/13 09:22:55;;;;;;;12.77;3.50;;;;;;;;;;5106671;28;20042;-62
2021/01/13 09:25:22;;;;;;;22.70;3.45;;;;;;;;;;5106598;28;20051;-62
2021/01/13 09:27:50;;;;;;;18.70;5.40;;;;;;;;;;5106139;28;20122;-62
2021/01/13 09:30:29;;;;;;;16.98;3.33;;;;;;;;;;5102979;27;20097;-62
2021/01/13 09:32:57;;;;;;;17.60;3.65;;;;;;;;;;5102033;28;20135;-62
2021/01/13 09:35:27;;;;;;;17.95;3.63;;;;;;;;;;5106287;28;20188;-61
2021/01/13 09:37:54;;;;;;;9.35;3.17;;;;;;;;;;5098653;28;20188;-61
2021/01/13 09:40:21;;;;;;;17.13;3.05;;;;;;;;;;5085830;28;20044;-62
2021/01/13 09:42:54;;;;;;;14.57;4.07;;;;;;;;;;5086103;28;20100;-62
2021/01/13 09:45:20;;;;;;;21.38;3.70;;;;;;;;;;5103654;27;20753;-64
2021/01/13 09:47:46;;;;;;;10.85;3.25;;;;;;;;;;5126000;27;20883;-65
2021/01/13 09:50:15;;;;;;;18.58;4.45;;;;;;;;;;5127166;27;20150;-64
2021/01/13 09:52:46;;;;;;;11.75;3.80;;;;;;;;;;5126822;27;20135;-62
2021/01/13 09:55:13;;;;;;;19.55;5.28;;;;;;;;;;5099677;27;20609;-62
2021/01/13 09:57:39;;;;;;;17.90;3.83;;;;;;;;;;5100251;28;20479;-61
2021/01/13 10:00:12;;;;;;;18.45;3.55;;;;;;;;;;5091861;28;20071;-62
2021/01/13 10:02:42;;;;;;;18.17;4.32;;;;;;;;;;5105289;28;20051;-63
2021/01/13 10:05:09;;;;;;;14.10;3.30;;;;;;;;;;5104501;28;20498;-62
2021/01/13 10:07:36;;;;;;;15.60;3.35;;;;;;;;;;5110181;27;20050;-62
2021/01/13 10:10:06;;;;;;;15.27;4.30;;;;;;;;;;5105899;28;20402;-61
2021/01/13 10:12:45;;;;;;;16.48;3.05;;;;;;;;;;5100625;28;20039;-62
2021/01/13 10:15:12;;;;;;;22.65;3.72;;;;;;;;;;5109695;27;20569;-62
2021/01/13 10:17:39;;;;;;;12.10;3.05;;;;;;;;;;5101442;27;20051;-62
2021/01/13 10:20:21;;;;;;;15.60;3.22;;;;;;;;;;5084334;28;20032;-62
2021/01/13 10:22:48;;;;;;;15.57;2.65;;;;;;;;;;5102056;28;20864;-63
2021/01/13 10:25:24;;;;;;;21.10;3.78;;;;;;;;;;5104678;28;20802;-63
2021/01/13 10:27:50;;;;;;;;;;;;;;;;;;5095368;28;20040;-62
2021/01/13 10:30:17;;;;;;;13.27;2.70;;;;;;;;;;5093196;28;19919;-63
2021/01/13 10:32:46;;;;;;;13.93;2.70;;;;;;;;;;5103799;28;20104;-63
2021/01/13 10:35:13;;;;;;;10.23;2.42;;;;;;;;;;5105486;28;20079;-64
2021/01/13 10:37:40;;;;;;;10.00;3.22;;;;;;;;;;5099474;28;20040;-64
2021/01/13 10:40:09;;;;;;;15.32;3.25;;;;;;;;;;5092787;28;20092;-63
2021/01/13 10:42:39;;;;;;;18.88;3.33;;;;;;;;;;5105080;28;20047;-63
2021/01/13 10:45:15;;;;;;;8.15;2.88;;;;;;;;;;5110311;27;20978;-63
2021/01/13 10:47:53;;;;;;;17.88;2.88;;;;;;;;;;5125554;27;20047;-63
2021/01/13 10:50:22;;;;;;;16.33;2.40;;;;;;;;;;5110541;27;20570;-63
2021/01/13 10:52:52;;;;;;;11.07;2.55;;;;;;;;;;5104791;28;20392;-63
2021/01/13 10:55:18;;;;;;;12.68;2.25;;;;;;;;;;5105835;28;20047;-63
2021/01/13 10:57:49;;;;;;;24.17;3.20;;;;;;;;;;5104999;28;20118;-63
2021/01/13 11:00:16;;;;;;;14.35;3.08;;;;;;;;;;5103612;27;20042;-63
2021/01/13 11:02:50;;;;;;;16.10;3.03;;;;;;;;;;5104430;28;20047;-63
2021/01/13 11:05:16;;;;;;;18.17;3.55;;;;;;;;;;5104794;28;20048;-63
2021/01/13 11:07:43;;;;;;;17.13;2.90;;;;;;;;;;5105258;28;20096;-63
2021/01/13 11:10:10;;;;;;;16.88;2.78;;;;;;;;;;5091491;28;20511;-63
2021/01/13 11:12:37;;;;;;;10.15;2.08;;;;;;;;;;5103160;28;20046;-63
2021/01/13 11:15:07;;;;;;;10.52;3.13;;;;;;;;;;5104324;28;20499;-63
2021/01/13 11:17:33;;;;;;;9.70;2.45;;;;;;;;;;5121998;28;20099;-63
2021/01/13 11:20:00;;;;;;;13.23;2.78;;;;;;;;;;5125467;28;20033;-61
2021/01/13 11:22:46;;;;;;;13.32;2.17;;;;;;;;;;5118454;28;20075;-61
2021/01/13 11:25:20;;;;;;;22.40;2.67;;;;;;;;;;5105080;28;20122;-63
2021/01/13 11:27:54;;;;;;;17.88;2.78;;;;;;;;;;5104395;28;20093;-63
2021/01/13 11:30:20;;;;;;;9.20;1.88;;;;;;;;;;5091417;28;20036;-61
2021/01/13 11:32:50;;;;;;;11.50;2.22;;;;;;;;;;5085124;28;20036;-63
2021/01/13 11:35:24;;;;;;;11.40;2.85;;;;;;;;;;5084473;28;20044;-63
2021/01/13 11:37:57;;;;;;;15.40;2.05;;;;;;;;;;5092192;28;20036;-63
2021/01/13 11:40:29;;;;;;;11.48;2.70;;;;;;;;;;5087305;28;20082;-63
2021/01/13 11:42:58;;;;;;;11.93;2.15;;;;;;;;;;5097564;28;20044;-62
2021/01/13 11:45:31;;;;;;;12.43;2.60;;;;;;;;;;5110744;27;20039;-63
2021/01/13 11:48:01;;;;;;;18.80;3.65;;;;;;;;;;5117998;28;20564;-64
2021/01/13 11:50:28;;;;;;;11.10;2.42;;;;;;;;;;5108244;28;20774;-64
2021/01/13 11:52:58;;;;;;;19.75;2.60;;;;;;;;;;5104257;28;20040;-64
2021/01/13 11:55:28;;;;;;;7.22;2.25;;;;;;;;;;5103764;28;20140;-64
2021/01/13 11:57:55;;;;;;;11.07;2.58;;;;;;;;;;5104943;28;20683;-64
2021/01/13 12:00:23;;;;;;;13.38;3.03;;;;;;;;;;5086564;28;20044;-64
2021/01/13 12:02:55;;;;;;;11.38;2.78;;;;;;;;;;5087028;28;20071;-64
2021/01/13 12:05:24;;;;;;;11.75;3.47;;;;;;;;;;5084001;28;20073;-64
2021/01/13 12:08:02;;;;;;;12.63;3.10;;;;;;;;;;5091427;28;20043;-63
2021/01/13 12:10:36;;;;;;;16.65;3.63;;;;;;;;;;5112454;28;20075;-63
2021/01/13 12:13:22;;;;;;;12.45;2.63;;;;;;;;;;5094556;27;20047;-63
2021/01/13 12:15:52;;;;;;;9.40;2.42;;;;;;;;;;5107163;27;20131;-63
2021/01/13 12:18:29;;;;;;;13.15;2.90;;;;;;;;;;5111471;27;20106;-63
2021/01/13 12:20:56;;;;;;;10.35;2.58;;;;;;;;;;5107899;27;20046;-62
2021/01/13 12:23:23;;;;;;;16.75;3.15;;;;;;;;;;5101188;28;20100;-61
2021/01/13 12:25:49;;;;;;;13.60;3.55;;;;;;;;;;5094502;28;20039;-62
2021/01/13 12:28:16;;;;;;;20.67;3.92;;;;;;;;;;5105961;28;20816;-62
2021/01/13 12:30:52;;;;;;;17.80;3.22;;;;;;;;;;5107436;28;20112;-62
2021/01/13 12:33:19;;;;;;;15.38;3.00;;;;;;;;;;5107872;28;20081;-62
2021/01/13 12:35:45;;;;;;;19.55;5.10;;;;;;;;;;5105888;28;20046;-62
2021/01/13 12:38:10;;;;;;;9.40;2.70;;;;;;;;;;5102356;28;20063;-64
2021/01/13 12:40:36;;;;;;;14.65;3.20;;;;;;;;;;5095455;28;20713;-67
2021/01/13 12:43:16;;;;;;;14.90;2.95;;;;;;;;;;5105264;28;20055;-66
2021/01/13 12:45:43;;;;;;;14.40;3.17;;;;;;;;;;5108384;27;20036;-67
2021/01/13 12:48:09;;;;;;;15.43;3.58;;;;;;;;;;5102823;28;20024;-65
2021/01/13 12:50:35;;;;;;;9.70;3.28;;;;;;;;;;5105214;28;20096;-63
2021/01/13 12:53:01;;;;;;;7.85;2.55;;;;;;;;;;5089227;28;20047;-63
2021/01/13 12:55:28;;;;;;;17.33;3.20;;;;;;;;;;5108257;28;20039;-63
2021/01/13 12:57:54;;;;;;;15.40;3.50;;;;;;;;;;5103536;28;20028;-63
2021/01/13 13:00:21;;;;;;;22.10;3.85;;;;;;;;;;5087245;28;20496;-63
2021/01/13 13:02:47;;;;;;;8.45;2.97;;;;;;;;;;5106182;28;20107;-63
2021/01/13 13:05:13;;;;;;;14.00;3.05;;;;;;;;;;5106702;28;20047;-63
2021/01/13 13:07:39;;;;;;;15.13;3.67;;;;;;;;;;5105253;28;20328;-63
2021/01/13 13:10:05;;;;;;;10.38;2.95;;;;;;;;;;5087115;28;20507;-63
2021/01/13 13:12:31;;;;;;;13.02;3.20;;;;;;;;;;5094666;28;20039;-63
2021/01/13 13:14:57;;;;;;;13.70;3.30;;;;;;;;;;5107213;27;20395;-62
2021/01/13 13:17:23;;;;;;;4.47;2.80;;;;;;;;;;5109462;27;20550;-62
2021/01/13 13:19:49;;;;;;;10.35;2.78;;;;;;;;;;5093083;28;20075;-63
2021/01/13 13:22:15;;;;;;;11.75;3.65;;;;;;;;;;5088622;28;20028;-63
2021/01/13 13:24:41;;;;;;;13.93;3.42;;;;;;;;;;5086408;28;20039;-64
2021/01/13 13:27:11;;;;;;;12.48;3.70;;;;;;;;;;5095726;28;20031;-63
2021/01/13 13:29:37;;;;;;;20.17;3.20;;;;;;;;;;5097841;28;20043;-63
2021/01/13 13:32:04;;;;;;;18.00;6.78;;;;;;;;;;5085400;28;20043;-63
2021/01/13 13:34:30;;;;;;;32.53;11.85;;;;;;;;;;5104090;28;20139;-63
2021/01/13 13:36:59;;;;;;;11.20;3.65;;;;;;;;;;5105957;28;20080;-63
2021/01/13 13:39:25;;;;;;;7.70;3.72;;;;;;;;;;5096354;28;20035;-63
2021/01/13 13:41:55;;;;;;;9.30;3.53;;;;;;;;;;5100603;28;20114;-63
2021/01/13 13:44:21;;;;;;;13.20;3.45;;;;;;;;;;5094619;28;20110;-63
2021/01/13 13:46:48;;;;;;;14.27;3.70;;;;;;;;;;5099290;27;20039;-63
2021/01/13 13:49:13;;;;;;;12.77;3.70;;;;;;;;;;5105197;28;20050;-63